Titusville, Pennsylvania
Current Conditions -  °F | °C
As of 4:15 PM on Saturday 22 Nov 2014 (Local Time) from KFKL Reporting Station
Overcast Overcast  
Wind Chill: 28°   Ceiling: 4100
Heat Index: 36°   Visibility: 10mi
Dew Point: 30°   Wind: 12mph
Humidity: 81%   Direction: 200°SSW
Pressure: 30.12"   Gusts: NA
Location:  41.63°N, 79.67°W
Report Text: KFKL 222115Z AUTO 20010KT 10SM BKN041 OVC050 02/M01 A3012 RMK AO1
Loading
Personal Weather Stations






























Interactive Weather Map New forecast layout! Learn more

10-Day Weather Forecast

Advertisements
Track Severe Weather on mobile